sensor_id;sensor_type;location;lat;lon;timestamp;temperature;humidity
6174;DHT22;3120;48.796;9.796;2023-03-05T00:02:04;2.50;1.00
6174;DHT22;3120;48.796;9.796;2023-03-05T00:04:30;2.60;1.00
6174;DHT22;3120;48.796;9.796;2023-03-05T00:06:55;2.50;1.00
6174;DHT22;3120;48.796;9.796;2023-03-05T00:09:21;2.50;1.00
6174;DHT22;3120;48.796;9.796;2023-03-05T00:11:47;2.50;1.00
6174;DHT22;3120;48.796;9.796;2023-03-05T00:14:12;2.50;1.00
6174;DHT22;3120;48.796;9.796;2023-03-05T00:16:38;2.50;1.00
6174;DHT22;3120;48.796;9.796;2023-03-05T00:19:04;2.60;1.00
6174;DHT22;3120;48.796;9.796;2023-03-05T00:21:35;2.60;1.00
6174;DHT22;3120;48.796;9.796;2023-03-05T00:24:03;2.50;1.00
6174;DHT22;3120;48.796;9.796;2023-03-05T00:26:30;2.50;1.00
6174;DHT22;3120;48.796;9.796;2023-03-05T00:28:57;2.60;1.00
6174;DHT22;3120;48.796;9.796;2023-03-05T00:31:25;2.50;1.00
6174;DHT22;3120;48.796;9.796;2023-03-05T00:33:56;2.50;1.00
6174;DHT22;3120;48.796;9.796;2023-03-05T00:36:22;2.50;1.00
6174;DHT22;3120;48.796;9.796;2023-03-05T00:38:48;2.60;1.00
6174;DHT22;3120;48.796;9.796;2023-03-05T00:41:14;2.60;1.00
6174;DHT22;3120;48.796;9.796;2023-03-05T00:43:40;2.60;1.00
6174;DHT22;3120;48.796;9.796;2023-03-05T00:46:05;2.60;1.00
6174;DHT22;3120;48.796;9.796;2023-03-05T00:48:31;2.60;1.00
6174;DHT22;3120;48.796;9.796;2023-03-05T00:50:56;2.80;1.00
6174;DHT22;3120;48.796;9.796;2023-03-05T00:53:22;2.60;1.00
6174;DHT22;3120;48.796;9.796;2023-03-05T00:55:48;2.70;1.00
6174;DHT22;3120;48.796;9.796;2023-03-05T00:58:13;2.70;1.00
6174;DHT22;3120;48.796;9.796;2023-03-05T01:00:39;2.60;1.00
6174;DHT22;3120;48.796;9.796;2023-03-05T01:03:05;2.60;1.00
6174;DHT22;3120;48.796;9.796;2023-03-05T01:05:31;2.60;1.00
6174;DHT22;3120;48.796;9.796;2023-03-05T01:07:57;2.60;1.00
6174;DHT22;3120;48.796;9.796;2023-03-05T01:10:23;2.90;1.00
6174;DHT22;3120;48.796;9.796;2023-03-05T01:12:54;2.60;1.00
6174;DHT22;3120;48.796;9.796;2023-03-05T01:15:20;2.60;1.00
6174;DHT22;3120;48.796;9.796;2023-03-05T01:17:45;2.70;1.00
6174;DHT22;3120;48.796;9.796;2023-03-05T01:20:17;2.70;1.00
6174;DHT22;3120;48.796;9.796;2023-03-05T01:22:43;2.60;1.00
6174;DHT22;3120;48.796;9.796;2023-03-05T01:25:08;2.60;4.10
6174;DHT22;3120;48.796;9.796;2023-03-05T01:27:34;2.70;1.00
6174;DHT22;3120;48.796;9.796;2023-03-05T01:30:00;2.70;1.00
6174;DHT22;3120;48.796;9.796;2023-03-05T01:32:26;2.70;1.00
6174;DHT22;3120;48.796;9.796;2023-03-05T01:35:20;2.70;3.20
6174;DHT22;3120;48.796;9.796;2023-03-05T01:37:46;2.60;19.90
6174;DHT22;3120;48.796;9.796;2023-03-05T01:40:14;2.60;65.00
6174;DHT22;3120;48.796;9.796;2023-03-05T01:42:44;2.60;65.20
6174;DHT22;3120;48.796;9.796;2023-03-05T01:45:14;2.60;61.70
6174;DHT22;3120;48.796;9.796;2023-03-05T01:47:40;2.50;96.10
6174;DHT22;3120;48.796;9.796;2023-03-05T01:50:09;2.40;99.90
6174;DHT22;3120;48.796;9.796;2023-03-05T01:52:38;2.40;99.90
6174;DHT22;3120;48.796;9.796;2023-03-05T01:55:15;2.30;99.90
6174;DHT22;3120;48.796;9.796;2023-03-05T01:57:47;2.40;99.90
6174;DHT22;3120;48.796;9.796;2023-03-05T02:00:19;2.30;99.90
6174;DHT22;3120;48.796;9.796;2023-03-05T02:02:49;2.30;99.90
6174;DHT22;3120;48.796;9.796;2023-03-05T02:05:28;2.40;99.90
6174;DHT22;3120;48.796;9.796;2023-03-05T02:07:59;2.40;99.90
6174;DHT22;3120;48.796;9.796;2023-03-05T02:10:37;2.40;99.90
6174;DHT22;3120;48.796;9.796;2023-03-05T02:13:08;2.40;99.90
6174;DHT22;3120;48.796;9.796;2023-03-05T02:15:35;2.50;99.90
6174;DHT22;3120;48.796;9.796;2023-03-05T02:18:02;2.50;99.90
6174;DHT22;3120;48.796;9.796;2023-03-05T02:20:30;2.50;99.90
6174;DHT22;3120;48.796;9.796;2023-03-05T02:22:56;2.50;99.90
6174;DHT22;3120;48.796;9.796;2023-03-05T02:25:24;3.60;99.90
6174;DHT22;3120;48.796;9.796;2023-03-05T02:28:01;2.40;99.90
6174;DHT22;3120;48.796;9.796;2023-03-05T02:30:28;2.40;99.90
6174;DHT22;3120;48.796;9.796;2023-03-05T02:32:56;2.40;99.90
6174;DHT22;3120;48.796;9.796;2023-03-05T02:35:23;2.40;99.90
6174;DHT22;3120;48.796;9.796;2023-03-05T02:37:49;2.40;99.90
6174;DHT22;3120;48.796;9.796;2023-03-05T02:40:15;2.40;99.90
6174;DHT22;3120;48.796;9.796;2023-03-05T02:42:41;2.50;99.90
6174;DHT22;3120;48.796;9.796;2023-03-05T02:45:07;2.60;99.90
6174;DHT22;3120;48.796;9.796;2023-03-05T02:47:33;2.60;99.90
6174;DHT22;3120;48.796;9.796;2023-03-05T02:49:59;2.60;99.90
6174;DHT22;3120;48.796;9.796;2023-03-05T02:52:26;2.50;99.90
6174;DHT22;3120;48.796;9.796;2023-03-05T02:54:52;2.50;99.90
6174;DHT22;3120;48.796;9.796;2023-03-05T02:57:18;2.50;99.90
6174;DHT22;3120;48.796;9.796;2023-03-05T02:59:45;3.70;99.90
6174;DHT22;3120;48.796;9.796;2023-03-05T03:02:11;2.60;99.90
6174;DHT22;3120;48.796;9.796;2023-03-05T03:04:36;2.50;99.90
6174;DHT22;3120;48.796;9.796;2023-03-05T03:07:02;2.50;99.90
6174;DHT22;3120;48.796;9.796;2023-03-05T03:09:28;2.60;99.90
6174;DHT22;3120;48.796;9.796;2023-03-05T03:11:54;2.60;99.90
6174;DHT22;3120;48.796;9.796;2023-03-05T03:14:20;2.50;99.90
6174;DHT22;3120;48.796;9.796;2023-03-05T03:16:45;2.50;99.90
6174;DHT22;3120;48.796;9.796;2023-03-05T03:19:11;2.60;99.90
6174;DHT22;3120;48.796;9.796;2023-03-05T03:21:37;2.50;99.90
6174;DHT22;3120;48.796;9.796;2023-03-05T03:24:03;2.50;99.90
6174;DHT22;3120;48.796;9.796;2023-03-05T03:26:28;2.50;99.90
6174;DHT22;3120;48.796;9.796;2023-03-05T03:28:54;2.50;99.90
6174;DHT22;3120;48.796;9.796;2023-03-05T03:31:20;2.50;99.90
6174;DHT22;3120;48.796;9.796;2023-03-05T03:33:46;2.50;99.90
6174;DHT22;3120;48.796;9.796;2023-03-05T03:36:11;3.00;99.90
6174;DHT22;3120;48.796;9.796;2023-03-05T03:38:37;2.50;99.90
6174;DHT22;3120;48.796;9.796;2023-03-05T03:41:05;2.50;99.90
6174;DHT22;3120;48.796;9.796;2023-03-05T03:43:32;2.50;99.90
6174;DHT22;3120;48.796;9.796;2023-03-05T03:45:58;2.50;99.90
6174;DHT22;3120;48.796;9.796;2023-03-05T03:48:24;2.40;99.90
6174;DHT22;3120;48.796;9.796;2023-03-05T03:50:49;2.70;99.90
6174;DHT22;3120;48.796;9.796;2023-03-05T03:53:15;2.40;99.90
6174;DHT22;3120;48.796;9.796;2023-03-05T03:55:42;2.40;99.90
6174;DHT22;3120;48.796;9.796;2023-03-05T03:58:08;2.40;99.90
6174;DHT22;3120;48.796;9.796;2023-03-05T04:00:34;2.50;99.90
6174;DHT22;3120;48.796;9.796;2023-03-05T04:03:00;2.50;99.90
6174;DHT22;3120;48.796;9.796;2023-03-05T04:05:25;2.50;99.90
6174;DHT22;3120;48.796;9.796;2023-03-05T04:07:51;2.40;99.90
6174;DHT22;3120;48.796;9.796;2023-03-05T04:10:17;2.40;99.90
6174;DHT22;3120;48.796;9.796;2023-03-05T04:12:42;2.40;99.90
6174;DHT22;3120;48.796;9.796;2023-03-05T04:15:10;2.40;99.90
6174;DHT22;3120;48.796;9.796;2023-03-05T04:17:36;2.40;99.90
6174;DHT22;3120;48.796;9.796;2023-03-05T04:20:02;2.40;99.90
6174;DHT22;3120;48.796;9.796;2023-03-05T04:22:29;2.40;99.90
6174;DHT22;3120;48.796;9.796;2023-03-05T04:24:56;2.30;99.90
6174;DHT22;3120;48.796;9.796;2023-03-05T04:27:21;2.30;99.90
6174;DHT22;3120;48.796;9.796;2023-03-05T04:29:47;2.30;99.90
6174;DHT22;3120;48.796;9.796;2023-03-05T04:32:12;2.30;99.90
6174;DHT22;3120;48.796;9.796;2023-03-05T04:34:38;2.40;99.90
6174;DHT22;3120;48.796;9.796;2023-03-05T04:37:03;2.40;99.90
6174;DHT22;3120;48.796;9.796;2023-03-05T04:39:29;2.40;99.90
6174;DHT22;3120;48.796;9.796;2023-03-05T04:41:55;2.40;99.90
6174;DHT22;3120;48.796;9.796;2023-03-05T04:44:20;2.40;99.90
6174;DHT22;3120;48.796;9.796;2023-03-05T04:46:48;2.40;99.90
6174;DHT22;3120;48.796;9.796;2023-03-05T04:49:14;2.40;99.90
6174;DHT22;3120;48.796;9.796;2023-03-05T04:51:40;2.50;99.90
6174;DHT22;3120;48.796;9.796;2023-03-05T04:54:06;2.40;99.90
6174;DHT22;3120;48.796;9.796;2023-03-05T04:56:32;2.40;99.90
6174;DHT22;3120;48.796;9.796;2023-03-05T04:58:58;2.30;99.90
6174;DHT22;3120;48.796;9.796;2023-03-05T05:01:24;2.30;99.90
6174;DHT22;3120;48.796;9.796;2023-03-05T05:03:49;2.30;99.90
6174;DHT22;3120;48.796;9.796;2023-03-05T05:06:15;2.40;99.90
6174;DHT22;3120;48.796;9.796;2023-03-05T05:08:40;2.40;99.90
6174;DHT22;3120;48.796;9.796;2023-03-05T05:11:07;2.40;99.90
6174;DHT22;3120;48.796;9.796;2023-03-05T05:13:33;2.50;99.90
6174;DHT22;3120;48.796;9.796;2023-03-05T05:15:59;2.50;99.90
6174;DHT22;3120;48.796;9.796;2023-03-05T05:18:25;2.40;99.90
6174;DHT22;3120;48.796;9.796;2023-03-05T05:20:51;3.20;99.90
6174;DHT22;3120;48.796;9.796;2023-03-05T05:23:17;2.40;99.90
6174;DHT22;3120;48.796;9.796;2023-03-05T05:25:43;2.50;99.90
6174;DHT22;3120;48.796;9.796;2023-03-05T05:28:10;2.50;99.90
6174;DHT22;3120;48.796;9.796;2023-03-05T05:30:35;2.50;99.90
6174;DHT22;3120;48.796;9.796;2023-03-05T05:33:01;2.60;99.90
6174;DHT22;3120;48.796;9.796;2023-03-05T05:35:46;2.60;99.90
6174;DHT22;3120;48.796;9.796;2023-03-05T05:38:12;2.60;99.90
6174;DHT22;3120;48.796;9.796;2023-03-05T05:40:37;2.50;99.90
6174;DHT22;3120;48.796;9.796;2023-03-05T05:43:03;2.50;99.90
6174;DHT22;3120;48.796;9.796;2023-03-05T05:45:29;2.50;99.90
6174;DHT22;3120;48.796;9.796;2023-03-05T05:47:54;2.50;99.90
6174;DHT22;3120;48.796;9.796;2023-03-05T05:50:20;2.60;99.90
6174;DHT22;3120;48.796;9.796;2023-03-05T05:52:46;2.60;99.90
6174;DHT22;3120;48.796;9.796;2023-03-05T05:55:11;2.60;99.90
6174;DHT22;3120;48.796;9.796;2023-03-05T05:57:37;2.70;99.90
6174;DHT22;3120;48.796;9.796;2023-03-05T06:00:05;2.60;99.90
6174;DHT22;3120;48.796;9.796;2023-03-05T06:02:31;2.60;99.90
6174;DHT22;3120;48.796;9.796;2023-03-05T06:04:57;2.70;99.90
6174;DHT22;3120;48.796;9.796;2023-03-05T06:07:23;2.70;99.90
6174;DHT22;3120;48.796;9.796;2023-03-05T06:09:48;2.70;99.90
6174;DHT22;3120;48.796;9.796;2023-03-05T06:12:14;2.70;99.90
6174;DHT22;3120;48.796;9.796;2023-03-05T06:14:39;2.60;99.90
6174;DHT22;3120;48.796;9.796;2023-03-05T06:17:05;2.70;99.90
6174;DHT22;3120;48.796;9.796;2023-03-05T06:19:31;2.70;99.90
6174;DHT22;3120;48.796;9.796;2023-03-05T06:21:56;2.60;99.90
6174;DHT22;3120;48.796;9.796;2023-03-05T06:24:22;2.70;99.90
6174;DHT22;3120;48.796;9.796;2023-03-05T06:26:48;2.70;99.90
6174;DHT22;3120;48.796;9.796;2023-03-05T06:29:14;2.80;99.90
6174;DHT22;3120;48.796;9.796;2023-03-05T06:31:40;2.80;99.90
6174;DHT22;3120;48.796;9.796;2023-03-05T06:34:05;2.70;99.90
6174;DHT22;3120;48.796;9.796;2023-03-05T06:36:31;2.70;99.90
6174;DHT22;3120;48.796;9.796;2023-03-05T06:38:57;2.80;99.90
6174;DHT22;3120;48.796;9.796;2023-03-05T06:41:26;2.70;99.90
6174;DHT22;3120;48.796;9.796;2023-03-05T06:43:53;2.70;99.90
6174;DHT22;3120;48.796;9.796;2023-03-05T06:46:22;2.70;99.90
6174;DHT22;3120;48.796;9.796;2023-03-05T06:48:48;2.70;99.90
6174;DHT22;3120;48.796;9.796;2023-03-05T06:51:25;2.80;99.90
6174;DHT22;3120;48.796;9.796;2023-03-05T06:53:52;2.80;99.90
6174;DHT22;3120;48.796;9.796;2023-03-05T06:56:19;2.80;99.90
6174;DHT22;3120;48.796;9.796;2023-03-05T06:58:47;2.80;99.90
6174;DHT22;3120;48.796;9.796;2023-03-05T07:01:14;2.80;99.90
6174;DHT22;3120;48.796;9.796;2023-03-05T07:03:40;2.80;99.90
6174;DHT22;3120;48.796;9.796;2023-03-05T07:06:09;2.70;99.90
6174;DHT22;3120;48.796;9.796;2023-03-05T07:08:36;2.70;99.90
6174;DHT22;3120;48.796;9.796;2023-03-05T07:11:02;2.80;99.90
6174;DHT22;3120;48.796;9.796;2023-03-05T07:13:28;2.80;99.90
6174;DHT22;3120;48.796;9.796;2023-03-05T07:15:54;2.90;99.90
6174;DHT22;3120;48.796;9.796;2023-03-05T07:18:20;2.80;99.90
6174;DHT22;3120;48.796;9.796;2023-03-05T07:20:46;2.90;99.90
6174;DHT22;3120;48.796;9.796;2023-03-05T07:23:13;2.90;99.90
6174;DHT22;3120;48.796;9.796;2023-03-05T07:25:39;3.60;99.90
6174;DHT22;3120;48.796;9.796;2023-03-05T07:28:05;3.00;99.90
6174;DHT22;3120;48.796;9.796;2023-03-05T07:30:32;3.10;99.90
6174;DHT22;3120;48.796;9.796;2023-03-05T07:32:59;3.20;99.90
6174;DHT22;3120;48.796;9.796;2023-03-05T07:35:30;3.00;99.90
6174;DHT22;3120;48.796;9.796;2023-03-05T07:37:56;3.10;99.90
6174;DHT22;3120;48.796;9.796;2023-03-05T07:40:21;3.10;99.90
6174;DHT22;3120;48.796;9.796;2023-03-05T07:42:47;3.30;99.90
6174;DHT22;3120;48.796;9.796;2023-03-05T07:45:13;3.20;99.90
6174;DHT22;3120;48.796;9.796;2023-03-05T07:47:38;3.20;99.00
6174;DHT22;3120;48.796;9.796;2023-03-05T07:50:04;3.20;98.80
6174;DHT22;3120;48.796;9.796;2023-03-05T07:52:30;3.30;98.00
6174;DHT22;3120;48.796;9.796;2023-03-05T07:54:55;3.30;73.00
6174;DHT22;3120;48.796;9.796;2023-03-05T07:57:21;3.30;88.20
6174;DHT22;3120;48.796;9.796;2023-03-05T07:59:47;3.20;89.00
6174;DHT22;3120;48.796;9.796;2023-03-05T08:02:13;3.30;92.70
6174;DHT22;3120;48.796;9.796;2023-03-05T08:04:40;3.30;82.70
6174;DHT22;3120;48.796;9.796;2023-03-05T08:07:06;3.30;90.40
6174;DHT22;3120;48.796;9.796;2023-03-05T08:09:32;3.30;85.10
6174;DHT22;3120;48.796;9.796;2023-03-05T08:12:14;3.40;84.40
6174;DHT22;3120;48.796;9.796;2023-03-05T08:14:41;3.30;78.60
6174;DHT22;3120;48.796;9.796;2023-03-05T08:17:06;3.40;95.90
6174;DHT22;3120;48.796;9.796;2023-03-05T08:19:33;3.40;90.40
6174;DHT22;3120;48.796;9.796;2023-03-05T08:21:59;3.40;73.90
6174;DHT22;3120;48.796;9.796;2023-03-05T08:24:24;3.50;72.70
6174;DHT22;3120;48.796;9.796;2023-03-05T08:26:54;3.50;65.90
6174;DHT22;3120;48.796;9.796;2023-03-05T08:29:20;3.50;87.80
6174;DHT22;3120;48.796;9.796;2023-03-05T08:31:47;3.50;76.70
6174;DHT22;3120;48.796;9.796;2023-03-05T08:34:14;3.50;91.20
6174;DHT22;3120;48.796;9.796;2023-03-05T08:36:40;3.50;78.80
6174;DHT22;3120;48.796;9.796;2023-03-05T08:39:05;3.50;97.80
6174;DHT22;3120;48.796;9.796;2023-03-05T08:41:33;3.60;85.90
6174;DHT22;3120;48.796;9.796;2023-03-05T08:43:58;3.50;95.90
6174;DHT22;3120;48.796;9.796;2023-03-05T08:46:24;3.70;85.30
6174;DHT22;3120;48.796;9.796;2023-03-05T08:48:49;3.60;72.10
6174;DHT22;3120;48.796;9.796;2023-03-05T08:51:18;3.70;83.40
6174;DHT22;3120;48.796;9.796;2023-03-05T08:53:45;3.70;72.60
6174;DHT22;3120;48.796;9.796;2023-03-05T08:56:12;3.70;78.90
6174;DHT22;3120;48.796;9.796;2023-03-05T08:58:38;3.70;79.40
6174;DHT22;3120;48.796;9.796;2023-03-05T09:01:03;3.70;56.20
6174;DHT22;3120;48.796;9.796;2023-03-05T09:03:29;3.80;35.80
6174;DHT22;3120;48.796;9.796;2023-03-05T09:06:03;3.80;71.40
6174;DHT22;3120;48.796;9.796;2023-03-05T09:08:29;3.80;45.50
6174;DHT22;3120;48.796;9.796;2023-03-05T09:10:55;3.90;54.60
6174;DHT22;3120;48.796;9.796;2023-03-05T09:13:21;3.90;28.40
6174;DHT22;3120;48.796;9.796;2023-03-05T09:15:58;4.00;16.30
6174;DHT22;3120;48.796;9.796;2023-03-05T09:18:25;3.90;18.30
6174;DHT22;3120;48.796;9.796;2023-03-05T09:20:51;3.90;46.20
6174;DHT22;3120;48.796;9.796;2023-03-05T09:23:16;4.00;31.20
6174;DHT22;3120;48.796;9.796;2023-03-05T09:25:42;4.10;47.20
6174;DHT22;3120;48.796;9.796;2023-03-05T09:28:08;4.10;30.30
6174;DHT22;3120;48.796;9.796;2023-03-05T09:30:33;4.10;12.50
6174;DHT22;3120;48.796;9.796;2023-03-05T09:33:00;4.10;10.60
6174;DHT22;3120;48.796;9.796;2023-03-05T09:35:26;4.10;10.80
6174;DHT22;3120;48.796;9.796;2023-03-05T09:37:52;4.10;1.60
6174;DHT22;3120;48.796;9.796;2023-03-05T09:40:19;4.10;11.30
6174;DHT22;3120;48.796;9.796;2023-03-05T09:51:28;4.20;1.00
6174;DHT22;3120;48.796;9.796;2023-03-05T09:54:02;4.60;1.00
6174;DHT22;3120;48.796;9.796;2023-03-05T09:56:39;2.90;4.20
6174;DHT22;3120;48.796;9.796;2023-03-05T10:02:28;4.30;1.00
6174;DHT22;3120;48.796;9.796;2023-03-05T10:07:54;4.30;1.00
6174;DHT22;3120;48.796;9.796;2023-03-05T10:10:26;4.30;1.00
6174;DHT22;3120;48.796;9.796;2023-03-05T10:12:59;5.30;1.00
6174;DHT22;3120;48.796;9.796;2023-03-05T10:18:49;4.40;1.00
6174;DHT22;3120;48.796;9.796;2023-03-05T10:21:23;4.30;1.00
6174;DHT22;3120;48.796;9.796;2023-03-05T10:24:08;4.30;1.00
6174;DHT22;3120;48.796;9.796;2023-03-05T10:29:38;4.30;1.00
6174;DHT22;3120;48.796;9.796;2023-03-05T10:32:40;4.30;1.00
6174;DHT22;3120;48.796;9.796;2023-03-05T10:38:18;4.40;1.00
6174;DHT22;3120;48.796;9.796;2023-03-05T10:40:50;4.40;1.00
6174;DHT22;3120;48.796;9.796;2023-03-05T10:44:19;4.40;1.00
6174;DHT22;3120;48.796;9.796;2023-03-05T10:46:16;4.30;1.00
6174;DHT22;3120;48.796;9.796;2023-03-05T10:48:58;4.30;1.00
6174;DHT22;3120;48.796;9.796;2023-03-05T10:52:11;4.40;1.00
6174;DHT22;3120;48.796;9.796;2023-03-05T10:54:40;4.40;1.00
6174;DHT22;3120;48.796;9.796;2023-03-05T10:57:20;4.40;1.00
6174;DHT22;3120;48.796;9.796;2023-03-05T10:59:57;4.40;1.00
6174;DHT22;3120;48.796;9.796;2023-03-05T11:02:25;4.30;1.00
6174;DHT22;3120;48.796;9.796;2023-03-05T11:04:52;4.30;1.00
6174;DHT22;3120;48.796;9.796;2023-03-05T11:10:09;4.40;1.00
6174;DHT22;3120;48.796;9.796;2023-03-05T11:12:38;4.40;1.00
6174;DHT22;3120;48.796;9.796;2023-03-05T11:20:31;5.40;1.00
6174;DHT22;3120;48.796;9.796;2023-03-05T11:25:47;4.80;1.00
6174;DHT22;3120;48.796;9.796;2023-03-05T11:28:18;4.90;1.00
6174;DHT22;3120;48.796;9.796;2023-03-05T11:30:57;4.80;1.00
6174;DHT22;3120;48.796;9.796;2023-03-05T11:33:25;4.80;1.00
6174;DHT22;3120;48.796;9.796;2023-03-05T11:36:08;5.40;1.00
6174;DHT22;3120;48.796;9.796;2023-03-05T11:39:28;4.80;1.00
6174;DHT22;3120;48.796;9.796;2023-03-05T11:41:36;4.80;1.00
6174;DHT22;3120;48.796;9.796;2023-03-05T11:44:04;4.80;99.90
6174;DHT22;3120;48.796;9.796;2023-03-05T11:46:41;4.80;1.00
6174;DHT22;3120;48.796;9.796;2023-03-05T11:49:10;4.90;1.00
6174;DHT22;3120;48.796;9.796;2023-03-05T11:51:56;4.90;99.90
6174;DHT22;3120;48.796;9.796;2023-03-05T11:54:32;4.80;99.90
6174;DHT22;3120;48.796;9.796;2023-03-05T11:56:59;4.80;1.00
6174;DHT22;3120;48.796;9.796;2023-03-05T11:59:35;4.80;99.90
6174;DHT22;3120;48.796;9.796;2023-03-05T12:02:23;5.00;99.90
6174;DHT22;3120;48.796;9.796;2023-03-05T12:04:50;4.80;1.00
6174;DHT22;3120;48.796;9.796;2023-03-05T12:07:21;5.00;1.00
6174;DHT22;3120;48.796;9.796;2023-03-05T12:09:49;4.80;1.00
6174;DHT22;3120;48.796;9.796;2023-03-05T12:15:03;4.80;99.90
6174;DHT22;3120;48.796;9.796;2023-03-05T12:17:55;4.90;99.90
6174;DHT22;3120;48.796;9.796;2023-03-05T12:23:17;5.00;1.00
6174;DHT22;3120;48.796;9.796;2023-03-05T12:28:17;5.20;1.00
6174;DHT22;3120;48.796;9.796;2023-03-05T12:31:20;5.20;1.00
6174;DHT22;3120;48.796;9.796;2023-03-05T12:33:49;5.40;99.90
6174;DHT22;3120;48.796;9.796;2023-03-05T12:38:54;5.50;1.00
6174;DHT22;3120;48.796;9.796;2023-03-05T12:51:56;5.10;99.90
6174;DHT22;3120;48.796;9.796;2023-03-05T12:54:41;4.90;99.90
6174;DHT22;3120;48.796;9.796;2023-03-05T12:57:19;4.90;99.90
6174;DHT22;3120;48.796;9.796;2023-03-05T12:59:50;4.90;99.90
6174;DHT22;3120;48.796;9.796;2023-03-05T13:02:21;4.90;99.90
6174;DHT22;3120;48.796;9.796;2023-03-05T13:04:47;4.90;1.00
6174;DHT22;3120;48.796;9.796;2023-03-05T13:07:17;5.00;99.90
6174;DHT22;3120;48.796;9.796;2023-03-05T13:09:54;5.00;1.00
6174;DHT22;3120;48.796;9.796;2023-03-05T13:12:21;5.10;99.90
6174;DHT22;3120;48.796;9.796;2023-03-05T13:17:56;5.20;1.00
6174;DHT22;3120;48.796;9.796;2023-03-05T13:25:41;5.30;1.00
6174;DHT22;3120;48.796;9.796;2023-03-05T13:28:11;5.40;1.00
6174;DHT22;3120;48.796;9.796;2023-03-05T13:30:37;5.50;99.90
6174;DHT22;3120;48.796;9.796;2023-03-05T13:33:04;6.20;99.90
6174;DHT22;3120;48.796;9.796;2023-03-05T13:35:30;5.60;99.90
6174;DHT22;3120;48.796;9.796;2023-03-05T13:37:56;5.50;99.90
6174;DHT22;3120;48.796;9.796;2023-03-05T13:53:29;5.40;1.00
6174;DHT22;3120;48.796;9.796;2023-03-05T13:55:57;5.30;1.00
6174;DHT22;3120;48.796;9.796;2023-03-05T13:58:44;5.20;13.00
6174;DHT22;3120;48.796;9.796;2023-03-05T14:01:23;5.10;43.30
6174;DHT22;3120;48.796;9.796;2023-03-05T14:03:51;5.20;99.90
6174;DHT22;3120;48.796;9.796;2023-03-05T14:06:20;5.10;99.90
6174;DHT22;3120;48.796;9.796;2023-03-05T14:08:52;5.10;1.00
6174;DHT22;3120;48.796;9.796;2023-03-05T14:11:24;5.00;1.00
6174;DHT22;3120;48.796;9.796;2023-03-05T14:14:12;4.90;1.00
6174;DHT22;3120;48.796;9.796;2023-03-05T14:16:39;5.00;50.30
6174;DHT22;3120;48.796;9.796;2023-03-05T14:19:05;5.00;1.00
6174;DHT22;3120;48.796;9.796;2023-03-05T14:21:48;6.10;99.90
6174;DHT22;3120;48.796;9.796;2023-03-05T14:24:22;5.10;1.00
6174;DHT22;3120;48.796;9.796;2023-03-05T14:27:00;7.10;1.00
6174;DHT22;3120;48.796;9.796;2023-03-05T14:29:30;5.00;99.90
6174;DHT22;3120;48.796;9.796;2023-03-05T14:31:59;6.60;99.90
6174;DHT22;3120;48.796;9.796;2023-03-05T14:34:34;6.00;1.00
6174;DHT22;3120;48.796;9.796;2023-03-05T14:39:59;5.10;99.90
6174;DHT22;3120;48.796;9.796;2023-03-05T14:42:35;4.90;29.10
6174;DHT22;3120;48.796;9.796;2023-03-05T14:45:17;4.90;1.00
6174;DHT22;3120;48.796;9.796;2023-03-05T14:47:51;5.00;99.90
6174;DHT22;3120;48.796;9.796;2023-03-05T14:50:50;6.70;1.00
6174;DHT22;3120;48.796;9.796;2023-03-05T14:55:53;5.00;99.90
6174;DHT22;3120;48.796;9.796;2023-03-05T14:58:28;5.00;1.00
6174;DHT22;3120;48.796;9.796;2023-03-05T15:00:56;5.00;1.00
6174;DHT22;3120;48.796;9.796;2023-03-05T15:03:23;4.90;1.00
6174;DHT22;3120;48.796;9.796;2023-03-05T15:05:52;4.80;1.00
6174;DHT22;3120;48.796;9.796;2023-03-05T15:08:24;4.80;1.00
6174;DHT22;3120;48.796;9.796;2023-03-05T15:10:51;5.00;1.00
6174;DHT22;3120;48.796;9.796;2023-03-05T15:13:18;5.90;99.90
6174;DHT22;3120;48.796;9.796;2023-03-05T15:15:45;4.70;27.10
6174;DHT22;3120;48.796;9.796;2023-03-05T15:18:17;5.90;1.00
6174;DHT22;3120;48.796;9.796;2023-03-05T15:20:44;4.80;99.90
6174;DHT22;3120;48.796;9.796;2023-03-05T15:23:10;5.40;99.90
6174;DHT22;3120;48.796;9.796;2023-03-05T15:25:37;6.90;99.90
6174;DHT22;3120;48.796;9.796;2023-03-05T15:28:04;3.90;99.90
6174;DHT22;3120;48.796;9.796;2023-03-05T15:30:32;4.80;99.90
6174;DHT22;3120;48.796;9.796;2023-03-05T15:33:02;4.60;99.90
6174;DHT22;3120;48.796;9.796;2023-03-05T15:35:28;6.50;99.90
6174;DHT22;3120;48.796;9.796;2023-03-05T15:37:54;4.70;1.00
6174;DHT22;3120;48.796;9.796;2023-03-05T15:40:21;4.70;1.00
6174;DHT22;3120;48.796;9.796;2023-03-05T15:42:47;6.30;99.90
6174;DHT22;3120;48.796;9.796;2023-03-05T15:45:13;7.00;99.90
6174;DHT22;3120;48.796;9.796;2023-03-05T15:47:39;6.10;99.90
6174;DHT22;3120;48.796;9.796;2023-03-05T15:50:06;6.10;99.90
6174;DHT22;3120;48.796;9.796;2023-03-05T15:52:32;4.50;99.90
6174;DHT22;3120;48.796;9.796;2023-03-05T15:55:02;6.00;99.90
6174;DHT22;3120;48.796;9.796;2023-03-05T15:57:28;4.50;99.90
6174;DHT22;3120;48.796;9.796;2023-03-05T15:59:54;4.20;99.90
6174;DHT22;3120;48.796;9.796;2023-03-05T16:02:20;4.30;99.90
6174;DHT22;3120;48.796;9.796;2023-03-05T16:04:45;5.80;1.00
6174;DHT22;3120;48.796;9.796;2023-03-05T16:07:12;6.10;1.00
6174;DHT22;3120;48.796;9.796;2023-03-05T16:09:43;5.90;1.00
6174;DHT22;3120;48.796;9.796;2023-03-05T16:12:14;4.30;99.90
6174;DHT22;3120;48.796;9.796;2023-03-05T16:14:42;4.20;99.90
6174;DHT22;3120;48.796;9.796;2023-03-05T16:17:08;5.70;99.90
6174;DHT22;3120;48.796;9.796;2023-03-05T16:19:37;4.20;99.90
6174;DHT22;3120;48.796;9.796;2023-03-05T16:22:04;4.00;99.90
6174;DHT22;3120;48.796;9.796;2023-03-05T16:24:30;4.10;1.00
6174;DHT22;3120;48.796;9.796;2023-03-05T16:26:57;4.20;1.00
6174;DHT22;3120;48.796;9.796;2023-03-05T16:29:23;4.10;1.00
6174;DHT22;3120;48.796;9.796;2023-03-05T16:31:48;4.20;62.90
6174;DHT22;3120;48.796;9.796;2023-03-05T16:34:14;4.10;99.90
6174;DHT22;3120;48.796;9.796;2023-03-05T16:36:46;4.10;99.90
6174;DHT22;3120;48.796;9.796;2023-03-05T16:39:12;4.20;40.20
6174;DHT22;3120;48.796;9.796;2023-03-05T16:41:38;4.10;99.90
6174;DHT22;3120;48.796;9.796;2023-03-05T16:44:03;4.10;99.90
6174;DHT22;3120;48.796;9.796;2023-03-05T16:46:30;4.10;99.90
6174;DHT22;3120;48.796;9.796;2023-03-05T16:48:56;6.30;99.90
6174;DHT22;3120;48.796;9.796;2023-03-05T16:51:23;4.10;99.90
6174;DHT22;3120;48.796;9.796;2023-03-05T16:53:49;5.60;99.90
6174;DHT22;3120;48.796;9.796;2023-03-05T16:56:15;4.00;99.90
6174;DHT22;3120;48.796;9.796;2023-03-05T16:58:41;3.90;99.90
6174;DHT22;3120;48.796;9.796;2023-03-05T17:01:16;3.90;99.90
6174;DHT22;3120;48.796;9.796;2023-03-05T17:03:42;3.90;99.90
6174;DHT22;3120;48.796;9.796;2023-03-05T17:08:40;3.90;6.80
6174;DHT22;3120;48.796;9.796;2023-03-05T17:11:06;3.90;99.90
6174;DHT22;3120;48.796;9.796;2023-03-05T17:13:32;3.90;73.20
6174;DHT22;3120;48.796;9.796;2023-03-05T17:15:58;3.80;99.90
6174;DHT22;3120;48.796;9.796;2023-03-05T17:18:24;3.80;1.00
6174;DHT22;3120;48.796;9.796;2023-03-05T17:20:50;5.40;99.90
6174;DHT22;3120;48.796;9.796;2023-03-05T17:23:15;3.80;99.90
6174;DHT22;3120;48.796;9.796;2023-03-05T17:25:41;3.80;19.10
6174;DHT22;3120;48.796;9.796;2023-03-05T17:28:07;3.80;99.90
6174;DHT22;3120;48.796;9.796;2023-03-05T17:30:33;3.70;99.90
6174;DHT22;3120;48.796;9.796;2023-03-05T17:33:02;3.80;99.90
6174;DHT22;3120;48.796;9.796;2023-03-05T17:35:29;3.70;99.90
6174;DHT22;3120;48.796;9.796;2023-03-05T17:38:01;3.80;99.90
6174;DHT22;3120;48.796;9.796;2023-03-05T17:40:28;3.80;99.90
6174;DHT22;3120;48.796;9.796;2023-03-05T17:42:55;3.80;99.90
6174;DHT22;3120;48.796;9.796;2023-03-05T17:45:21;3.80;28.10
6174;DHT22;3120;48.796;9.796;2023-03-05T17:48:17;3.80;99.90
6174;DHT22;3120;48.796;9.796;2023-03-05T17:50:43;3.80;99.90
6174;DHT22;3120;48.796;9.796;2023-03-05T17:53:10;3.70;99.90
6174;DHT22;3120;48.796;9.796;2023-03-05T17:55:38;3.80;99.90
6174;DHT22;3120;48.796;9.796;2023-03-05T17:58:04;3.80;99.90